Grandfield, Oklahoma
Current Conditions -  °F | °C
As of 6:53 AM on Monday 20 Oct 2014 (Local Time) from KFDR Reporting Station
Haze Haze  
Wind Chill: 58°   Ceiling: 8000
Heat Index: 58°   Visibility: 6mi
Dew Point: 56°   Wind: 8mph
Humidity: 93%   Direction: 110°ESE
Pressure: 30.03"   Gusts: NA
Location:  34.23°N, 98.68°W
Report Text: KFDR 201153Z AUTO 11007KT 6SM BR OVC080 14/13 A3003 RMK AO2 SLP158 T01440133 10161 20144 53004 $
Loading
Personal Weather Stations






























Interactive Weather Map
Tropical Storm Tracking
New forecast layout! Learn more

10-Day Weather Forecast

Advertisements
Track Severe Weather on mobile